sensor_id;sensor_type;location;lat;lon;timestamp;pressure;altitude;pressure_sealevel;temperature;humidity
59435;BME280;45241;49.768;8.636;2023-06-22T00:02:18;100176.09;;;25.88;83.23
59435;BME280;45241;49.768;8.636;2023-06-22T00:04:44;100179.19;;;25.81;82.26
59435;BME280;45241;49.768;8.636;2023-06-22T00:07:09;100178.84;;;25.64;83.51
59435;BME280;45241;49.768;8.636;2023-06-22T00:09:35;100179.59;;;25.70;83.01
59435;BME280;45241;49.768;8.636;2023-06-22T00:12:01;100186.09;;;25.55;84.86
59435;BME280;45241;49.768;8.636;2023-06-22T00:14:26;100193.63;;;25.68;84.88
59435;BME280;45241;49.768;8.636;2023-06-22T00:16:52;100184.03;;;25.42;86.60
59435;BME280;45241;49.768;8.636;2023-06-22T00:19:23;100188.69;;;25.41;86.81
59435;BME280;45241;49.768;8.636;2023-06-22T00:21:48;100195.56;;;25.39;87.50
59435;BME280;45241;49.768;8.636;2023-06-22T00:24:18;100210.47;;;25.33;87.94
59435;BME280;45241;49.768;8.636;2023-06-22T00:26:43;100229.84;;;25.12;90.13
59435;BME280;45241;49.768;8.636;2023-06-22T00:29:09;100248.28;;;25.07;91.13
59435;BME280;45241;49.768;8.636;2023-06-22T00:31:34;100265.19;;;24.80;92.49
59435;BME280;45241;49.768;8.636;2023-06-22T00:33:59;100302.63;;;24.45;95.90
59435;BME280;45241;49.768;8.636;2023-06-22T00:36:25;100310.63;;;24.91;92.92
59435;BME280;45241;49.768;8.636;2023-06-22T00:38:50;100314.16;;;24.97;91.93
59435;BME280;45241;49.768;8.636;2023-06-22T00:41:16;100324.25;;;25.06;91.98
59435;BME280;45241;49.768;8.636;2023-06-22T00:43:42;100327.72;;;25.17;91.80
59435;BME280;45241;49.768;8.636;2023-06-22T00:46:07;100325.56;;;25.14;91.94
59435;BME280;45241;49.768;8.636;2023-06-22T00:48:33;100324.78;;;25.08;91.45
59435;BME280;45241;49.768;8.636;2023-06-22T00:50:59;100312.38;;;25.16;90.85
59435;BME280;45241;49.768;8.636;2023-06-22T00:53:24;100329.34;;;25.23;91.40
59435;BME280;45241;49.768;8.636;2023-06-22T00:55:49;100368.03;;;25.16;92.86
59435;BME280;45241;49.768;8.636;2023-06-22T00:58:17;100420.47;;;24.40;99.83
59435;BME280;45241;49.768;8.636;2023-06-22T01:00:46;100488.19;;;24.04;100.00
59435;BME280;45241;49.768;8.636;2023-06-22T01:03:12;100516.38;;;24.45;100.00
59435;BME280;45241;49.768;8.636;2023-06-22T01:05:38;100532.53;;;24.42;100.00
59435;BME280;45241;49.768;8.636;2023-06-22T01:08:33;100543.22;;;24.69;100.00
59435;BME280;45241;49.768;8.636;2023-06-22T01:11:07;100525.13;;;24.73;100.00
59435;BME280;45241;49.768;8.636;2023-06-22T01:16:15;100359.69;;;24.23;100.00
59435;BME280;45241;49.768;8.636;2023-06-22T01:18:44;100313.50;;;23.81;100.00
59435;BME280;45241;49.768;8.636;2023-06-22T01:21:14;100284.38;;;24.20;100.00
59435;BME280;45241;49.768;8.636;2023-06-22T01:29:27;100159.91;;;23.87;100.00
59435;BME280;45241;49.768;8.636;2023-06-22T01:31:54;100138.59;;;23.74;100.00
59435;BME280;45241;49.768;8.636;2023-06-22T01:34:21;100129.56;;;23.79;100.00
59435;BME280;45241;49.768;8.636;2023-06-22T01:36:48;100126.22;;;23.87;100.00
59435;BME280;45241;49.768;8.636;2023-06-22T01:39:14;100144.09;;;23.74;100.00
59435;BME280;45241;49.768;8.636;2023-06-22T01:41:41;100161.09;;;23.66;100.00
59435;BME280;45241;49.768;8.636;2023-06-22T01:44:08;100185.72;;;23.61;100.00
59435;BME280;45241;49.768;8.636;2023-06-22T01:46:34;100205.78;;;23.31;100.00
59435;BME280;45241;49.768;8.636;2023-06-22T01:49:03;100228.47;;;23.31;100.00
59435;BME280;45241;49.768;8.636;2023-06-22T01:51:29;100230.66;;;23.39;100.00
59435;BME280;45241;49.768;8.636;2023-06-22T01:53:55;100238.00;;;23.59;100.00
59435;BME280;45241;49.768;8.636;2023-06-22T01:56:20;100228.75;;;23.50;100.00
59435;BME280;45241;49.768;8.636;2023-06-22T01:58:50;100239.34;;;23.62;100.00
59435;BME280;45241;49.768;8.636;2023-06-22T02:01:28;100244.31;;;23.50;100.00
59435;BME280;45241;49.768;8.636;2023-06-22T02:04:16;100250.91;;;23.33;100.00
59435;BME280;45241;49.768;8.636;2023-06-22T02:06:45;100258.22;;;23.73;100.00
59435;BME280;45241;49.768;8.636;2023-06-22T02:09:16;100259.88;;;23.69;100.00
59435;BME280;45241;49.768;8.636;2023-06-22T02:11:44;100257.63;;;23.87;100.00
59435;BME280;45241;49.768;8.636;2023-06-22T02:14:11;100255.19;;;23.80;100.00
59435;BME280;45241;49.768;8.636;2023-06-22T02:16:37;100261.53;;;23.65;100.00
59435;BME280;45241;49.768;8.636;2023-06-22T02:19:03;100269.75;;;23.65;100.00
59435;BME280;45241;49.768;8.636;2023-06-22T02:21:29;100265.38;;;23.49;100.00
59435;BME280;45241;49.768;8.636;2023-06-22T02:23:56;100259.66;;;23.51;100.00
59435;BME280;45241;49.768;8.636;2023-06-22T02:26:21;100254.44;;;23.49;100.00
59435;BME280;45241;49.768;8.636;2023-06-22T02:28:47;100251.69;;;23.49;100.00
59435;BME280;45241;49.768;8.636;2023-06-22T02:31:12;100249.78;;;23.55;100.00
59435;BME280;45241;49.768;8.636;2023-06-22T02:33:38;100248.16;;;23.23;100.00
59435;BME280;45241;49.768;8.636;2023-06-22T02:36:03;100242.16;;;23.16;100.00
59435;BME280;45241;49.768;8.636;2023-06-22T02:38:31;100240.22;;;23.42;100.00
59435;BME280;45241;49.768;8.636;2023-06-22T02:40:59;100236.94;;;23.55;100.00
59435;BME280;45241;49.768;8.636;2023-06-22T02:43:25;100235.59;;;23.27;100.00
59435;BME280;45241;49.768;8.636;2023-06-22T02:45:50;100246.53;;;23.22;100.00
59435;BME280;45241;49.768;8.636;2023-06-22T02:48:15;100239.72;;;23.25;100.00
59435;BME280;45241;49.768;8.636;2023-06-22T02:50:41;100247.06;;;22.88;100.00
59435;BME280;45241;49.768;8.636;2023-06-22T02:53:06;100245.13;;;22.94;100.00
59435;BME280;45241;49.768;8.636;2023-06-22T02:55:31;100247.03;;;23.09;100.00
59435;BME280;45241;49.768;8.636;2023-06-22T02:57:57;100236.16;;;23.19;100.00
59435;BME280;45241;49.768;8.636;2023-06-22T03:00:24;100239.41;;;23.01;100.00
59435;BME280;45241;49.768;8.636;2023-06-22T03:02:55;100240.75;;;23.08;100.00
59435;BME280;45241;49.768;8.636;2023-06-22T03:05:21;100224.94;;;23.15;100.00
59435;BME280;45241;49.768;8.636;2023-06-22T03:07:46;100211.25;;;23.00;100.00
59435;BME280;45241;49.768;8.636;2023-06-22T03:10:13;100210.69;;;23.13;100.00
59435;BME280;45241;49.768;8.636;2023-06-22T03:12:39;100214.28;;;23.19;100.00
59435;BME280;45241;49.768;8.636;2023-06-22T03:15:09;100215.66;;;23.16;100.00
59435;BME280;45241;49.768;8.636;2023-06-22T03:17:36;100220.25;;;22.96;100.00
59435;BME280;45241;49.768;8.636;2023-06-22T03:20:03;100222.44;;;23.04;100.00
59435;BME280;45241;49.768;8.636;2023-06-22T03:22:38;100209.63;;;22.89;100.00
59435;BME280;45241;49.768;8.636;2023-06-22T03:25:04;100191.28;;;23.05;100.00
59435;BME280;45241;49.768;8.636;2023-06-22T03:27:35;100191.84;;;23.12;100.00
59435;BME280;45241;49.768;8.636;2023-06-22T03:30:00;100191.28;;;23.15;100.00
59435;BME280;45241;49.768;8.636;2023-06-22T03:32:25;100184.72;;;23.21;100.00
59435;BME280;45241;49.768;8.636;2023-06-22T03:34:53;100185.28;;;23.18;100.00
59435;BME280;45241;49.768;8.636;2023-06-22T03:37:18;100196.22;;;22.77;100.00
59435;BME280;45241;49.768;8.636;2023-06-22T03:39:44;100190.19;;;22.91;100.00
59435;BME280;45241;49.768;8.636;2023-06-22T03:42:09;100183.91;;;22.90;100.00
59435;BME280;45241;49.768;8.636;2023-06-22T03:44:35;100183.09;;;23.00;100.00
59435;BME280;45241;49.768;8.636;2023-06-22T03:47:02;100192.41;;;22.99;100.00
59435;BME280;45241;49.768;8.636;2023-06-22T03:49:27;100183.63;;;23.12;100.00
59435;BME280;45241;49.768;8.636;2023-06-22T03:51:53;100187.44;;;22.96;100.00
59435;BME280;45241;49.768;8.636;2023-06-22T03:54:18;100196.75;;;22.89;100.00
59435;BME280;45241;49.768;8.636;2023-06-22T03:56:43;100187.72;;;23.09;100.00
59435;BME280;45241;49.768;8.636;2023-06-22T03:59:09;100189.66;;;22.99;100.00
59435;BME280;45241;49.768;8.636;2023-06-22T04:01:35;100200.56;;;22.83;100.00
59435;BME280;45241;49.768;8.636;2023-06-22T04:04:00;100187.47;;;22.75;100.00
59435;BME280;45241;49.768;8.636;2023-06-22T04:06:25;100197.84;;;22.78;100.00
59435;BME280;45241;49.768;8.636;2023-06-22T04:08:51;100204.13;;;22.84;100.00
59435;BME280;45241;49.768;8.636;2023-06-22T04:11:17;100202.75;;;22.81;100.00
59435;BME280;45241;49.768;8.636;2023-06-22T04:13:43;100200.84;;;22.97;100.00
59435;BME280;45241;49.768;8.636;2023-06-22T04:16:09;100197.28;;;23.07;100.00
59435;BME280;45241;49.768;8.636;2023-06-22T04:18:34;100202.78;;;23.12;100.00
59435;BME280;45241;49.768;8.636;2023-06-22T04:20:59;100197.88;;;23.19;100.00
59435;BME280;45241;49.768;8.636;2023-06-22T04:23:25;100189.91;;;23.07;100.00
59435;BME280;45241;49.768;8.636;2023-06-22T04:25:50;100188.00;;;22.93;100.00
59435;BME280;45241;49.768;8.636;2023-06-22T04:28:16;100191.56;;;22.98;100.00
59435;BME280;45241;49.768;8.636;2023-06-22T04:30:41;100182.00;;;22.80;100.00
59435;BME280;45241;49.768;8.636;2023-06-22T04:33:14;100183.34;;;23.08;100.00
59435;BME280;45241;49.768;8.636;2023-06-22T04:35:40;100188.81;;;23.03;100.00
59435;BME280;45241;49.768;8.636;2023-06-22T04:38:08;100208.53;;;22.85;100.00
59435;BME280;45241;49.768;8.636;2023-06-22T04:40:33;100198.94;;;23.13;100.00
59435;BME280;45241;49.768;8.636;2023-06-22T04:42:59;100192.91;;;23.06;100.00
59435;BME280;45241;49.768;8.636;2023-06-22T04:45:27;100195.13;;;22.99;100.00
59435;BME280;45241;49.768;8.636;2023-06-22T04:47:53;100200.28;;;23.10;100.00
59435;BME280;45241;49.768;8.636;2023-06-22T04:50:18;100197.59;;;23.15;100.00
59435;BME280;45241;49.768;8.636;2023-06-22T04:52:46;100195.94;;;23.20;100.00
59435;BME280;45241;49.768;8.636;2023-06-22T04:55:11;100196.22;;;23.18;100.00
59435;BME280;45241;49.768;8.636;2023-06-22T04:57:37;100199.22;;;23.06;100.00
59435;BME280;45241;49.768;8.636;2023-06-22T05:00:05;100195.13;;;23.24;100.00
59435;BME280;45241;49.768;8.636;2023-06-22T05:02:40;100188.00;;;23.08;100.00
59435;BME280;45241;49.768;8.636;2023-06-22T05:05:06;100190.19;;;23.11;100.00
59435;BME280;45241;49.768;8.636;2023-06-22T05:07:35;100193.47;;;23.13;100.00
59435;BME280;45241;49.768;8.636;2023-06-22T05:10:02;100182.81;;;23.06;100.00
59435;BME280;45241;49.768;8.636;2023-06-22T05:12:28;100185.25;;;23.08;100.00
59435;BME280;45241;49.768;8.636;2023-06-22T05:14:54;100180.91;;;23.27;100.00
59435;BME280;45241;49.768;8.636;2023-06-22T05:17:20;100181.19;;;23.26;100.00
59435;BME280;45241;49.768;8.636;2023-06-22T05:19:45;100179.81;;;23.28;100.00
59435;BME280;45241;49.768;8.636;2023-06-22T05:22:15;100180.34;;;23.40;100.00
59435;BME280;45241;49.768;8.636;2023-06-22T05:24:40;100171.00;;;23.46;100.00
59435;BME280;45241;49.768;8.636;2023-06-22T05:27:06;100161.16;;;23.45;100.00
59435;BME280;45241;49.768;8.636;2023-06-22T05:29:31;100156.19;;;23.58;100.00
59435;BME280;45241;49.768;8.636;2023-06-22T05:31:56;100155.09;;;23.59;100.00
59435;BME280;45241;49.768;8.636;2023-06-22T05:34:22;100158.34;;;23.76;100.00
59435;BME280;45241;49.768;8.636;2023-06-22T05:36:47;100155.28;;;23.83;100.00
59435;BME280;45241;49.768;8.636;2023-06-22T05:39:14;100148.94;;;23.92;100.00
59435;BME280;45241;49.768;8.636;2023-06-22T05:41:39;100165.38;;;23.87;100.00
59435;BME280;45241;49.768;8.636;2023-06-22T05:44:05;100153.59;;;23.97;100.00
59435;BME280;45241;49.768;8.636;2023-06-22T05:46:30;100158.97;;;24.17;100.00
59435;BME280;45241;49.768;8.636;2023-06-22T05:48:56;100146.59;;;24.25;100.00
59435;BME280;45241;49.768;8.636;2023-06-22T05:51:21;100150.66;;;24.27;100.00
59435;BME280;45241;49.768;8.636;2023-06-22T05:53:46;100139.00;;;24.17;100.00
59435;BME280;45241;49.768;8.636;2023-06-22T05:56:15;100145.13;;;24.43;100.00
59435;BME280;45241;49.768;8.636;2023-06-22T05:58:40;100141.81;;;24.41;100.00
59435;BME280;45241;49.768;8.636;2023-06-22T06:01:05;100147.72;;;24.58;100.00
59435;BME280;45241;49.768;8.636;2023-06-22T06:03:31;100140.13;;;24.50;100.00
59435;BME280;45241;49.768;8.636;2023-06-22T06:05:56;100139.28;;;24.54;100.00
59435;BME280;45241;49.768;8.636;2023-06-22T06:08:21;100127.38;;;24.64;100.00
59435;BME280;45241;49.768;8.636;2023-06-22T06:10:47;100130.38;;;24.73;100.00
59435;BME280;45241;49.768;8.636;2023-06-22T06:13:12;100129.22;;;24.79;100.00
59435;BME280;45241;49.768;8.636;2023-06-22T06:15:37;100118.81;;;24.81;100.00
59435;BME280;45241;49.768;8.636;2023-06-22T06:18:03;100128.09;;;24.80;100.00
59435;BME280;45241;49.768;8.636;2023-06-22T06:20:31;100128.00;;;24.90;100.00
59435;BME280;45241;49.768;8.636;2023-06-22T06:22:56;100122.88;;;24.83;100.00
59435;BME280;45241;49.768;8.636;2023-06-22T06:25:22;100131.94;;;24.84;100.00
59435;BME280;45241;49.768;8.636;2023-06-22T06:27:48;100112.66;;;24.94;100.00
59435;BME280;45241;49.768;8.636;2023-06-22T06:30:15;100124.28;;;25.10;100.00
59435;BME280;45241;49.768;8.636;2023-06-22T06:32:41;100125.81;;;24.92;100.00
59435;BME280;45241;49.768;8.636;2023-06-22T06:35:08;100113.47;;;24.95;100.00
59435;BME280;45241;49.768;8.636;2023-06-22T06:37:36;100126.03;;;25.25;100.00
59435;BME280;45241;49.768;8.636;2023-06-22T06:40:05;100119.13;;;25.27;97.93
59435;BME280;45241;49.768;8.636;2023-06-22T06:42:35;100131.13;;;25.36;98.24
59435;BME280;45241;49.768;8.636;2023-06-22T06:45:00;100134.59;;;25.18;98.62
59435;BME280;45241;49.768;8.636;2023-06-22T06:47:25;100129.22;;;25.08;98.87
59435;BME280;45241;49.768;8.636;2023-06-22T06:49:51;100111.53;;;25.48;98.50
59435;BME280;45241;49.768;8.636;2023-06-22T06:52:16;100115.84;;;25.54;97.59
59435;BME280;45241;49.768;8.636;2023-06-22T06:54:41;100126.91;;;25.68;99.63
59435;BME280;45241;49.768;8.636;2023-06-22T06:57:07;100135.00;;;25.59;100.00
59435;BME280;45241;49.768;8.636;2023-06-22T06:59:32;100118.34;;;25.74;97.93
59435;BME280;45241;49.768;8.636;2023-06-22T07:01:57;100113.63;;;25.56;99.02
59435;BME280;45241;49.768;8.636;2023-06-22T07:04:23;100105.94;;;25.77;97.10
59435;BME280;45241;49.768;8.636;2023-06-22T07:06:48;100107.66;;;25.92;97.75
59435;BME280;45241;49.768;8.636;2023-06-22T07:09:13;100104.25;;;26.00;97.12
59435;BME280;45241;49.768;8.636;2023-06-22T07:11:38;100098.47;;;26.01;97.96
59435;BME280;45241;49.768;8.636;2023-06-22T07:14:04;100106.81;;;26.15;96.95
59435;BME280;45241;49.768;8.636;2023-06-22T07:16:29;100101.31;;;26.15;96.36
59435;BME280;45241;49.768;8.636;2023-06-22T07:18:56;100107.94;;;26.14;96.68
59435;BME280;45241;49.768;8.636;2023-06-22T07:21:21;100103.75;;;25.98;95.99
59435;BME280;45241;49.768;8.636;2023-06-22T07:23:47;100121.84;;;25.99;96.10
59435;BME280;45241;49.768;8.636;2023-06-22T07:26:12;100115.66;;;26.12;96.11
59435;BME280;45241;49.768;8.636;2023-06-22T07:28:38;100123.91;;;26.12;96.49
59435;BME280;45241;49.768;8.636;2023-06-22T07:31:05;100102.22;;;26.11;94.95
59435;BME280;45241;49.768;8.636;2023-06-22T07:33:31;100105.47;;;26.13;94.88
59435;BME280;45241;49.768;8.636;2023-06-22T07:35:56;100104.38;;;26.08;95.17
59435;BME280;45241;49.768;8.636;2023-06-22T07:38:22;100090.19;;;26.25;93.98
59435;BME280;45241;49.768;8.636;2023-06-22T07:40:47;100096.03;;;26.70;95.26
59435;BME280;45241;49.768;8.636;2023-06-22T07:43:12;100092.88;;;26.63;93.60
59435;BME280;45241;49.768;8.636;2023-06-22T07:45:38;100084.72;;;26.72;92.38
59435;BME280;45241;49.768;8.636;2023-06-22T07:48:05;100086.41;;;26.54;92.75
59435;BME280;45241;49.768;8.636;2023-06-22T07:50:30;100093.78;;;27.05;92.56
59435;BME280;45241;49.768;8.636;2023-06-22T07:52:56;100094.50;;;27.10;90.73
59435;BME280;45241;49.768;8.636;2023-06-22T07:55:21;100100.13;;;27.33;91.09
59435;BME280;45241;49.768;8.636;2023-06-22T07:57:48;100107.56;;;27.32;90.31
59435;BME280;45241;49.768;8.636;2023-06-22T08:00:14;100097.69;;;27.31;88.47
59435;BME280;45241;49.768;8.636;2023-06-22T08:02:41;100096.34;;;27.42;88.97
59435;BME280;45241;49.768;8.636;2023-06-22T08:05:08;100101.88;;;27.42;89.29
59435;BME280;45241;49.768;8.636;2023-06-22T08:07:37;100092.59;;;27.52;88.03
59435;BME280;45241;49.768;8.636;2023-06-22T08:10:04;100086.59;;;27.50;86.68
59435;BME280;45241;49.768;8.636;2023-06-22T08:12:29;100084.91;;;27.76;86.76
59435;BME280;45241;49.768;8.636;2023-06-22T08:14:54;100096.44;;;27.78;86.47
59435;BME280;45241;49.768;8.636;2023-06-22T08:17:20;100092.00;;;27.55;84.44
59435;BME280;45241;49.768;8.636;2023-06-22T08:19:45;100073.59;;;27.78;85.25
59435;BME280;45241;49.768;8.636;2023-06-22T08:22:10;100078.72;;;27.71;84.18
59435;BME280;45241;49.768;8.636;2023-06-22T08:24:36;100076.34;;;27.78;83.88
59435;BME280;45241;49.768;8.636;2023-06-22T08:27:01;100071.69;;;28.01;83.62
59435;BME280;45241;49.768;8.636;2023-06-22T08:29:26;100060.84;;;28.04;83.20
59435;BME280;45241;49.768;8.636;2023-06-22T08:31:52;100054.47;;;27.95;82.29
59435;BME280;45241;49.768;8.636;2023-06-22T08:34:17;100055.78;;;27.98;80.73
59435;BME280;45241;49.768;8.636;2023-06-22T08:36:48;100068.75;;;28.11;79.81
59435;BME280;45241;49.768;8.636;2023-06-22T08:39:18;100053.09;;;28.20;79.93
59435;BME280;45241;49.768;8.636;2023-06-22T08:41:45;100056.09;;;28.32;80.23
59435;BME280;45241;49.768;8.636;2023-06-22T08:44:10;100055.56;;;28.53;79.80
59435;BME280;45241;49.768;8.636;2023-06-22T08:46:35;100058.94;;;28.72;79.66
59435;BME280;45241;49.768;8.636;2023-06-22T08:49:01;100048.28;;;28.57;76.39
59435;BME280;45241;49.768;8.636;2023-06-22T08:51:27;100048.34;;;28.65;78.38
59435;BME280;45241;49.768;8.636;2023-06-22T08:53:52;100051.91;;;28.88;77.41
59435;BME280;45241;49.768;8.636;2023-06-22T08:56:18;100067.88;;;29.00;76.31
59435;BME280;45241;49.768;8.636;2023-06-22T08:58:44;100055.88;;;28.73;77.09
59435;BME280;45241;49.768;8.636;2023-06-22T09:01:09;100053.38;;;28.86;76.78
59435;BME280;45241;49.768;8.636;2023-06-22T09:03:34;100052.72;;;28.89;77.20
59435;BME280;45241;49.768;8.636;2023-06-22T09:06:01;100062.00;;;28.70;75.80
59435;BME280;45241;49.768;8.636;2023-06-22T09:08:26;100043.81;;;28.69;74.88
59435;BME280;45241;49.768;8.636;2023-06-22T09:10:52;100035.84;;;28.90;74.41
59435;BME280;45241;49.768;8.636;2023-06-22T09:13:17;100040.50;;;29.12;73.85
59435;BME280;45241;49.768;8.636;2023-06-22T09:15:43;100039.16;;;29.41;75.41
59435;BME280;45241;49.768;8.636;2023-06-22T09:18:10;100032.03;;;29.74;74.06
59435;BME280;45241;49.768;8.636;2023-06-22T09:20:36;100025.25;;;29.89;74.03
59435;BME280;45241;49.768;8.636;2023-06-22T09:23:01;100021.47;;;29.85;72.08
59435;BME280;45241;49.768;8.636;2023-06-22T09:25:27;100023.59;;;29.71;72.84
59435;BME280;45241;49.768;8.636;2023-06-22T09:27:52;100024.75;;;29.78;72.21
59435;BME280;45241;49.768;8.636;2023-06-22T09:30:17;100023.47;;;30.02;72.31
59435;BME280;45241;49.768;8.636;2023-06-22T09:32:43;100022.78;;;29.87;70.71
59435;BME280;45241;49.768;8.636;2023-06-22T09:35:09;100017.09;;;29.93;71.27
59435;BME280;45241;49.768;8.636;2023-06-22T09:37:35;100020.22;;;30.00;71.64
59435;BME280;45241;49.768;8.636;2023-06-22T09:40:01;100022.97;;;30.17;71.78
59435;BME280;45241;49.768;8.636;2023-06-22T09:42:26;100026.53;;;29.92;71.22
59435;BME280;45241;49.768;8.636;2023-06-22T09:44:51;100024.28;;;30.02;71.44
59435;BME280;45241;49.768;8.636;2023-06-22T09:47:17;100024.91;;;29.99;70.70
59435;BME280;45241;49.768;8.636;2023-06-22T09:49:42;100022.16;;;30.08;70.12
59435;BME280;45241;49.768;8.636;2023-06-22T09:52:08;100018.22;;;30.26;69.86
59435;BME280;45241;49.768;8.636;2023-06-22T09:54:33;100006.53;;;30.21;70.90
59435;BME280;45241;49.768;8.636;2023-06-22T09:56:58;99991.34;;;30.61;69.26
59435;BME280;45241;49.768;8.636;2023-06-22T09:59:23;99984.28;;;30.81;67.75
59435;BME280;45241;49.768;8.636;2023-06-22T10:01:49;99973.00;;;31.24;68.79
59435;BME280;45241;49.768;8.636;2023-06-22T10:04:14;99969.03;;;31.34;67.05
59435;BME280;45241;49.768;8.636;2023-06-22T10:06:39;99968.88;;;31.30;67.46
59435;BME280;45241;49.768;8.636;2023-06-22T10:09:09;99961.47;;;31.64;66.27
59435;BME280;45241;49.768;8.636;2023-06-22T10:11:34;99960.22;;;31.02;66.44
59435;BME280;45241;49.768;8.636;2023-06-22T10:14:00;99951.19;;;31.23;66.84
59435;BME280;45241;49.768;8.636;2023-06-22T10:16:32;99946.31;;;31.41;65.48
59435;BME280;45241;49.768;8.636;2023-06-22T10:18:58;99932.94;;;31.63;63.73
59435;BME280;45241;49.768;8.636;2023-06-22T10:21:23;99931.88;;;31.77;64.18
59435;BME280;45241;49.768;8.636;2023-06-22T10:23:49;99935.72;;;31.43;64.95
59435;BME280;45241;49.768;8.636;2023-06-22T10:26:14;99926.13;;;31.82;64.45
59435;BME280;45241;49.768;8.636;2023-06-22T10:28:40;99930.91;;;32.27;63.19
59435;BME280;45241;49.768;8.636;2023-06-22T10:31:05;99921.34;;;32.03;63.43
59435;BME280;45241;49.768;8.636;2023-06-22T10:33:31;99917.44;;;32.04;63.64
59435;BME280;45241;49.768;8.636;2023-06-22T10:35:56;99915.22;;;32.43;60.52
59435;BME280;45241;49.768;8.636;2023-06-22T10:38:21;99909.56;;;32.39;61.81
59435;BME280;45241;49.768;8.636;2023-06-22T10:40:46;99913.59;;;32.42;60.72
59435;BME280;45241;49.768;8.636;2023-06-22T10:43:12;99906.63;;;32.24;60.97
59435;BME280;45241;49.768;8.636;2023-06-22T10:45:37;99904.56;;;32.33;61.00
59435;BME280;45241;49.768;8.636;2023-06-22T10:48:02;99904.03;;;32.52;62.01
59435;BME280;45241;49.768;8.636;2023-06-22T10:50:28;99893.50;;;32.69;60.19
59435;BME280;45241;49.768;8.636;2023-06-22T10:52:54;99888.19;;;32.64;60.98
59435;BME280;45241;49.768;8.636;2023-06-22T10:55:19;99874.63;;;32.26;61.24
59435;BME280;45241;49.768;8.636;2023-06-22T10:57:44;99859.19;;;32.62;62.73
59435;BME280;45241;49.768;8.636;2023-06-22T11:00:13;99856.25;;;32.70;60.66
59435;BME280;45241;49.768;8.636;2023-06-22T11:02:38;99855.25;;;32.63;61.68
59435;BME280;45241;49.768;8.636;2023-06-22T11:05:04;99854.66;;;32.94;60.86
59435;BME280;45241;49.768;8.636;2023-06-22T11:07:29;99856.16;;;33.03;60.39
59435;BME280;45241;49.768;8.636;2023-06-22T11:09:55;99855.41;;;33.19;60.76
59435;BME280;45241;49.768;8.636;2023-06-22T11:12:20;99852.72;;;33.62;60.33
59435;BME280;45241;49.768;8.636;2023-06-22T11:14:46;99849.97;;;33.50;57.65
59435;BME280;45241;49.768;8.636;2023-06-22T11:17:11;99835.94;;;34.03;57.21
59435;BME280;45241;49.768;8.636;2023-06-22T11:19:36;99835.94;;;34.03;57.05
59435;BME280;45241;49.768;8.636;2023-06-22T11:22:02;99841.91;;;33.89;55.62
59435;BME280;45241;49.768;8.636;2023-06-22T11:24:27;99834.06;;;33.63;56.83
59435;BME280;45241;49.768;8.636;2023-06-22T11:26:52;99829.94;;;33.57;55.58
59435;BME280;45241;49.768;8.636;2023-06-22T11:29:18;99834.13;;;33.79;56.14
59435;BME280;45241;49.768;8.636;2023-06-22T11:31:43;99844.34;;;33.34;56.09
59435;BME280;45241;49.768;8.636;2023-06-22T11:34:08;99828.09;;;33.21;56.19
59435;BME280;45241;49.768;8.636;2023-06-22T11:36:34;99833.81;;;33.00;57.20
59435;BME280;45241;49.768;8.636;2023-06-22T11:39:00;99821.41;;;33.50;57.34
59435;BME280;45241;49.768;8.636;2023-06-22T11:41:26;99821.44;;;33.65;56.92
59435;BME280;45241;49.768;8.636;2023-06-22T11:43:51;99828.16;;;33.64;57.20
59435;BME280;45241;49.768;8.636;2023-06-22T11:46:17;99825.63;;;33.31;57.65
59435;BME280;45241;49.768;8.636;2023-06-22T11:48:42;99824.47;;;33.32;56.82
59435;BME280;45241;49.768;8.636;2023-06-22T11:51:08;99821.94;;;33.40;56.29
59435;BME280;45241;49.768;8.636;2023-06-22T11:53:34;99803.97;;;33.81;56.62
59435;BME280;45241;49.768;8.636;2023-06-22T11:56:00;99805.28;;;34.31;55.92
59435;BME280;45241;49.768;8.636;2023-06-22T11:58:26;99802.91;;;33.85;56.74
59435;BME280;45241;49.768;8.636;2023-06-22T12:00:51;99790.44;;;33.79;57.55
59435;BME280;45241;49.768;8.636;2023-06-22T12:03:17;99796.69;;;33.76;56.63
59435;BME280;45241;49.768;8.636;2023-06-22T12:05:42;99814.00;;;33.70;56.69
59435;BME280;45241;49.768;8.636;2023-06-22T12:08:08;99810.31;;;33.93;55.22
59435;BME280;45241;49.768;8.636;2023-06-22T12:10:33;99807.06;;;33.63;54.68
59435;BME280;45241;49.768;8.636;2023-06-22T12:12:59;99799.47;;;33.76;53.53
59435;BME280;45241;49.768;8.636;2023-06-22T12:15:25;99807.16;;;33.95;53.25
59435;BME280;45241;49.768;8.636;2023-06-22T12:17:51;99803.63;;;33.82;54.19
59435;BME280;45241;49.768;8.636;2023-06-22T12:20:16;99806.66;;;33.21;55.51
59435;BME280;45241;49.768;8.636;2023-06-22T12:22:41;99781.91;;;33.72;55.59
59435;BME280;45241;49.768;8.636;2023-06-22T12:25:07;99777.81;;;33.98;54.91
59435;BME280;45241;49.768;8.636;2023-06-22T12:27:33;99778.72;;;34.02;53.14
59435;BME280;45241;49.768;8.636;2023-06-22T12:29:59;99778.03;;;33.61;54.16
59435;BME280;45241;49.768;8.636;2023-06-22T12:32:24;99780.63;;;33.54;53.54
59435;BME280;45241;49.768;8.636;2023-06-22T12:34:50;99776.63;;;33.67;53.84
59435;BME280;45241;49.768;8.636;2023-06-22T12:37:16;99773.56;;;33.56;53.30
59435;BME280;45241;49.768;8.636;2023-06-22T12:39:41;99782.94;;;33.52;53.29
59435;BME280;45241;49.768;8.636;2023-06-22T12:42:07;99785.66;;;33.36;53.43
59435;BME280;45241;49.768;8.636;2023-06-22T12:44:34;99794.69;;;33.33;53.81
59435;BME280;45241;49.768;8.636;2023-06-22T12:46:59;99790.84;;;33.37;54.13
59435;BME280;45241;49.768;8.636;2023-06-22T12:49:25;99793.00;;;33.56;53.50
59435;BME280;45241;49.768;8.636;2023-06-22T12:51:50;99787.19;;;33.77;52.81